createdAt,value
2019-04-10T00:01:23.876Z,90.60
2019-04-10T00:03:56.765Z,89.95
2019-04-10T00:06:28.309Z,90.21
2019-04-10T00:09:00.898Z,90.63
2019-04-10T00:11:34.585Z,90.56
2019-04-10T00:14:06.731Z,89.68
2019-04-10T00:16:38.393Z,89.74
2019-04-10T00:19:10.669Z,89.81
2019-04-10T00:21:42.357Z,89.41
2019-04-10T00:24:14.268Z,89.65
2019-04-10T00:26:45.926Z,90.15
2019-04-10T00:29:18.249Z,90.29
2019-04-10T00:31:50.723Z,89.99
2019-04-10T00:34:23.257Z,90.79
2019-04-10T00:36:55.162Z,90.92
2019-04-10T00:39:26.731Z,90.68
2019-04-10T00:41:58.804Z,91.49
2019-04-10T00:44:30.453Z,91.27
2019-04-10T00:47:02.460Z,91.39
2019-04-10T00:49:34.101Z,91.22
2019-04-10T00:52:05.994Z,91.29
2019-04-10T00:54:37.548Z,91.23
2019-04-10T00:57:09.427Z,90.40
2019-04-10T00:59:42.159Z,89.29
2019-04-10T01:02:13.774Z,88.97
2019-04-10T01:04:45.322Z,88.83
2019-04-10T01:07:16.922Z,88.13
2019-04-10T01:09:48.533Z,88.96
2019-04-10T01:12:20.050Z,90.50
2019-04-10T01:14:51.557Z,90.63
2019-04-10T01:17:24.032Z,90.59
2019-04-10T01:19:56.506Z,90.69
2019-04-10T01:22:27.850Z,90.34
2019-04-10T01:25:00.277Z,89.79
2019-04-10T01:27:32.025Z,89.52
2019-04-10T01:30:04.294Z,89.50
2019-04-10T01:32:36.370Z,89.33
2019-04-10T01:35:08.536Z,89.09
2019-04-10T01:37:48.912Z,88.91
2019-04-10T01:40:13.093Z,88.89
2019-04-10T01:42:58.965Z,89.28
2019-04-10T01:45:17.803Z,89.53
2019-04-10T01:47:49.422Z,89.84
2019-04-10T01:50:22.143Z,90.47
2019-04-10T01:52:53.970Z,90.32
2019-04-10T01:55:28.877Z,90.08
2019-04-10T01:58:00.898Z,89.76
2019-04-10T02:00:34.140Z,89.31
2019-04-10T02:03:05.658Z,88.93
2019-04-10T02:05:36.983Z,89.14
2019-04-10T02:08:11.396Z,89.49
2019-04-10T02:10:42.544Z,89.00
2019-04-10T02:13:14.926Z,89.15
2019-04-10T02:15:46.556Z,88.79
2019-04-10T02:18:17.972Z,88.51
2019-04-10T02:20:49.492Z,88.37
2019-04-10T02:23:21.078Z,88.27
2019-04-10T02:25:52.839Z,88.78
2019-04-10T02:28:24.231Z,88.74
2019-04-10T02:30:56.660Z,88.73
2019-04-10T02:33:29.347Z,89.07
2019-04-10T02:36:01.599Z,88.85
2019-04-10T02:38:49.206Z,89.42
2019-04-10T02:41:08.501Z,89.57
2019-04-10T02:43:39.958Z,89.72
2019-04-10T02:46:11.504Z,89.38
2019-04-10T02:48:44.181Z,88.76
2019-04-10T02:51:15.708Z,88.84
2019-04-10T02:53:48.085Z,89.49
2019-04-10T02:56:21.642Z,89.55
2019-04-10T02:58:54.349Z,90.00
2019-04-10T03:01:27.230Z,89.79
2019-04-10T03:03:59.222Z,90.05
2019-04-10T03:06:31.215Z,89.61
2019-04-10T03:09:21.795Z,89.15
2019-04-10T03:11:36.238Z,88.91
2019-04-10T03:14:08.083Z,88.86
2019-04-10T03:16:39.578Z,88.43
2019-04-10T03:19:11.648Z,88.46
2019-04-10T03:21:45.026Z,88.55
2019-04-10T03:24:16.340Z,88.87
2019-04-10T03:26:48.018Z,88.71
2019-04-10T03:29:19.877Z,88.71
2019-04-10T03:31:54.697Z,89.33
2019-04-10T03:34:33.224Z,89.51
2019-04-10T03:37:04.349Z,89.20
2019-04-10T03:39:36.039Z,89.44
2019-04-10T03:42:08.533Z,89.41
2019-04-10T03:44:40.949Z,89.31
2019-04-10T03:47:13.256Z,89.30
2019-04-10T03:49:44.898Z,89.37
2019-04-10T03:52:18.930Z,89.32
2019-04-10T03:54:50.433Z,88.99
2019-04-10T03:57:22.628Z,89.23
2019-04-10T03:59:53.915Z,89.26
2019-04-10T04:02:25.498Z,88.95
2019-04-10T04:04:56.801Z,88.94
2019-04-10T04:07:28.669Z,88.69
2019-04-10T04:10:00.261Z,88.67
2019-04-10T04:12:32.842Z,88.12
2019-04-10T04:15:05.390Z,88.25
2019-04-10T04:17:36.639Z,87.81
2019-04-10T04:20:08.345Z,87.84
2019-04-10T04:22:39.726Z,87.64
2019-04-10T04:25:11.461Z,87.54
2019-04-10T04:27:42.703Z,87.06
2019-04-10T04:30:14.783Z,86.49
2019-04-10T04:32:46.299Z,86.32
2019-04-10T04:35:17.661Z,86.10
2019-04-10T04:37:50.491Z,86.44
2019-04-10T04:40:21.981Z,86.48
2019-04-10T04:42:53.947Z,86.77
2019-04-10T04:45:25.735Z,87.70
2019-04-10T04:47:57.623Z,88.26
2019-04-10T04:50:29.348Z,88.47
2019-04-10T04:53:00.647Z,88.51
2019-04-10T04:55:33.150Z,89.08
2019-04-10T04:58:04.482Z,89.05
2019-04-10T05:00:35.958Z,89.01
2019-04-10T05:03:07.770Z,88.76
2019-04-10T05:05:39.449Z,88.26
2019-04-10T05:08:10.795Z,88.34
2019-04-10T05:10:42.364Z,87.79
2019-04-10T05:13:13.799Z,87.52
2019-04-10T05:15:45.112Z,87.06
2019-04-10T05:18:16.705Z,87.65
2019-04-10T05:20:50.491Z,87.43
2019-04-10T05:23:22.368Z,88.28
2019-04-10T05:25:54.028Z,87.92
2019-04-10T05:28:26.594Z,87.13
2019-04-10T05:30:58.932Z,87.10
2019-04-10T05:33:30.999Z,86.89
2019-04-10T05:36:02.014Z,86.56
2019-04-10T05:38:33.455Z,85.98
2019-04-10T05:41:04.807Z,86.59
2019-04-10T05:43:36.238Z,86.85
2019-04-10T05:46:07.526Z,86.25
2019-04-10T05:48:39.768Z,86.07
2019-04-10T05:51:11.005Z,86.36
2019-04-10T05:53:42.997Z,85.89
2019-04-10T05:56:15.901Z,86.28
2019-04-10T05:58:47.083Z,86.23
2019-04-10T06:01:29.907Z,86.56
2019-04-10T06:03:51.039Z,87.14
2019-04-10T06:06:22.295Z,86.75
2019-04-10T06:08:53.357Z,86.56
2019-04-10T06:11:24.740Z,86.04
2019-04-10T06:13:56.919Z,86.28
2019-04-10T06:16:28.262Z,86.82
2019-04-10T06:18:59.784Z,86.93
2019-04-10T06:21:31.389Z,86.14
2019-04-10T06:24:03.868Z,85.78
2019-04-10T06:26:35.499Z,85.00
2019-04-10T06:29:06.794Z,85.25
2019-04-10T06:31:38.937Z,85.19
2019-04-10T06:34:11.143Z,85.46
2019-04-10T06:36:43.803Z,86.73
2019-04-10T06:39:16.432Z,86.60
2019-04-10T06:41:48.798Z,86.33
2019-04-10T06:44:21.803Z,85.70
2019-04-10T06:46:53.108Z,85.55
2019-04-10T06:49:24.865Z,86.29
2019-04-10T06:51:55.909Z,87.35
2019-04-10T06:54:26.981Z,87.87
2019-04-10T06:56:58.731Z,88.01
2019-04-10T06:59:30.467Z,88.08
2019-04-10T07:02:13.136Z,87.59
2019-04-10T07:04:44.229Z,87.13
2019-04-10T07:07:12.647Z,86.31
2019-04-10T07:09:42.058Z,86.50
2019-04-10T07:12:14.376Z,86.26
2019-04-10T07:14:49.096Z,85.26
2019-04-10T07:17:19.946Z,85.35
2019-04-10T07:19:51.411Z,85.11
2019-04-10T07:22:22.937Z,84.68
2019-04-10T07:24:54.485Z,84.19
2019-04-10T07:27:26.071Z,84.14
2019-04-10T07:29:59.539Z,83.96
2019-04-10T07:32:30.925Z,83.84
2019-04-10T07:35:03.285Z,84.62
2019-04-10T07:37:36.008Z,84.83
2019-04-10T07:40:08.897Z,85.26
2019-04-10T07:42:41.871Z,85.42
2019-04-10T07:45:13.036Z,85.16
2019-04-10T07:47:44.173Z,84.79
2019-04-10T07:50:16.510Z,84.06
2019-04-10T07:52:47.919Z,84.70
2019-04-10T07:55:19.104Z,84.78
2019-04-10T07:57:51.819Z,84.18
2019-04-10T08:00:25.400Z,84.24
2019-04-10T08:02:57.623Z,84.74
2019-04-10T08:05:29.588Z,83.73
2019-04-10T08:08:01.036Z,82.36
2019-04-10T08:10:32.774Z,82.12
2019-04-10T08:13:04.585Z,80.71
2019-04-10T08:15:35.789Z,79.68
2019-04-10T08:18:07.123Z,79.47
2019-04-10T08:20:38.408Z,79.09
2019-04-10T08:23:10.204Z,79.16
2019-04-10T08:25:43.118Z,79.06
2019-04-10T08:28:15.380Z,78.88
2019-04-10T08:30:46.572Z,76.35
2019-04-10T08:33:18.122Z,76.83
2019-04-10T08:35:49.528Z,76.34
2019-04-10T08:38:21.827Z,74.31
2019-04-10T08:40:53.037Z,72.93
2019-04-10T08:43:24.994Z,73.24
2019-04-10T08:45:56.852Z,72.28
2019-04-10T08:48:30.121Z,72.53
2019-04-10T08:51:01.039Z,71.57
2019-04-10T08:53:32.029Z,72.67
2019-04-10T08:56:04.426Z,71.47
2019-04-10T08:58:35.561Z,72.31
2019-04-10T09:01:07.218Z,70.45
2019-04-10T09:03:39.216Z,71.08
2019-04-10T09:06:11.306Z,70.42
2019-04-10T09:08:43.600Z,70.68
2019-04-10T09:11:23.834Z,70.91
2019-04-10T09:13:48.615Z,72.47
2019-04-10T09:16:20.437Z,71.05
2019-04-10T09:18:51.657Z,69.86
2019-04-10T09:21:23.469Z,70.02
2019-04-10T09:23:57.288Z,70.43
2019-04-10T09:26:28.626Z,69.51
2019-04-10T09:28:59.770Z,69.22
2019-04-10T09:31:31.556Z,67.93
2019-04-10T09:34:03.764Z,66.42
2019-04-10T09:36:35.510Z,66.42
2019-04-10T09:39:09.563Z,63.63
2019-04-10T09:41:41.854Z,63.63
2019-04-10T09:44:14.355Z,62.52
2019-04-10T09:46:45.687Z,62.83
2019-04-10T09:49:16.709Z,63.47
2019-04-10T09:51:48.881Z,64.04
2019-04-10T09:54:20.062Z,59.71
2019-04-10T09:56:51.290Z,58.79
2019-04-10T09:59:34.910Z,60.10
2019-04-10T10:01:56.330Z,61.75
2019-04-10T10:04:27.720Z,54.84
2019-04-10T10:06:59.816Z,54.84
2019-04-10T10:09:30.788Z,54.80
2019-04-10T10:12:03.165Z,54.14
2019-04-10T10:14:34.326Z,54.14
2019-04-10T10:17:06.510Z,55.64
2019-04-10T10:19:39.152Z,54.60
2019-04-10T10:22:10.328Z,55.06
2019-04-10T10:24:42.630Z,53.41
2019-04-10T10:27:13.827Z,54.94
2019-04-10T10:29:44.795Z,56.73
2019-04-10T10:32:17.129Z,60.81
2019-04-10T10:34:48.237Z,57.18
2019-04-10T10:37:19.279Z,55.41
2019-04-10T10:39:51.540Z,53.26
2019-04-10T10:42:23.424Z,55.51
2019-04-10T10:44:54.737Z,52.24
2019-04-10T10:47:26.302Z,54.06
2019-04-10T10:49:57.749Z,52.77
2019-04-10T10:52:29.059Z,54.01
2019-04-10T10:55:01.052Z,55.72
2019-04-10T10:57:33.325Z,52.28
2019-04-10T11:00:06.193Z,53.59
2019-04-10T11:02:37.976Z,53.79
2019-04-10T11:05:10.637Z,53.33
2019-04-10T11:07:42.879Z,52.07
2019-04-10T11:10:14.811Z,52.50
2019-04-10T11:12:46.596Z,53.16
2019-04-10T11:15:18.589Z,54.60
2019-04-10T11:17:50.130Z,54.50
2019-04-10T11:20:21.645Z,53.50
2019-04-10T11:22:53.629Z,53.79
2019-04-10T11:25:26.123Z,53.25
2019-04-10T11:27:58.465Z,51.95
2019-04-10T11:30:29.944Z,52.65
2019-04-10T11:33:02.529Z,51.00
2019-04-10T11:35:33.666Z,51.16
2019-04-10T11:38:05.827Z,52.36
2019-04-10T11:40:38.877Z,53.57
2019-04-10T11:43:12.323Z,54.75
2019-04-10T11:45:49.097Z,55.79
2019-04-10T11:48:18.215Z,54.43
2019-04-10T11:50:51.013Z,53.65
2019-04-10T11:53:24.015Z,56.30
2019-04-10T11:55:56.995Z,54.46
2019-04-10T11:58:29.096Z,54.12
2019-04-10T12:01:02.500Z,56.06
2019-04-10T12:03:34.948Z,52.13
2019-04-10T12:06:07.170Z,51.96
2019-04-10T12:09:04.453Z,52.23
2019-04-10T12:11:15.509Z,50.13
2019-04-10T12:13:44.264Z,49.95
2019-04-10T12:16:15.303Z,49.92
2019-04-10T12:18:46.797Z,51.17
2019-04-10T12:21:18.117Z,51.67
2019-04-10T12:23:50.205Z,51.61
2019-04-10T12:26:22.059Z,51.73
2019-04-10T12:28:53.962Z,53.63
2019-04-10T12:31:26.011Z,53.95
2019-04-10T12:33:57.420Z,54.82
2019-04-10T12:36:28.782Z,55.30
2019-04-10T12:39:00.363Z,51.92
2019-04-10T12:41:33.239Z,50.84
2019-04-10T12:44:05.603Z,50.56
2019-04-10T12:46:37.327Z,50.50
2019-04-10T12:49:09.480Z,51.50
2019-04-10T12:51:41.555Z,52.00
2019-04-10T12:54:12.827Z,52.33
2019-04-10T12:56:43.779Z,52.23
2019-04-10T12:59:15.236Z,51.71
2019-04-10T13:01:47.332Z,52.20
2019-04-10T13:04:20.798Z,52.20
2019-04-10T13:06:52.786Z,52.21
2019-04-10T13:09:24.273Z,52.87
2019-04-10T13:12:00.693Z,52.36
2019-04-10T13:14:32.796Z,52.66
2019-04-10T13:17:04.716Z,52.55
2019-04-10T13:19:35.791Z,52.59
2019-04-10T13:22:07.571Z,51.75
2019-04-10T13:24:38.885Z,52.28
2019-04-10T13:27:10.403Z,51.83
2019-04-10T13:29:42.654Z,52.35
2019-04-10T13:32:13.969Z,52.98
2019-04-10T13:34:45.779Z,52.44
2019-04-10T13:37:17.983Z,52.24
2019-04-10T13:39:49.062Z,53.14
2019-04-10T13:42:21.029Z,53.28
2019-04-10T13:44:52.913Z,53.07
2019-04-10T13:47:24.285Z,53.41
2019-04-10T13:49:55.631Z,54.72
2019-04-10T13:52:27.895Z,53.72
2019-04-10T13:54:59.066Z,53.04
2019-04-10T13:57:30.685Z,53.45
2019-04-10T14:00:02.129Z,53.31
2019-04-10T14:02:37.543Z,53.69
2019-04-10T14:05:11.743Z,53.42
2019-04-10T14:07:44.238Z,53.73
2019-04-10T14:10:16.667Z,53.64
2019-04-10T14:12:47.974Z,53.81
2019-04-10T14:15:20.202Z,53.74
2019-04-10T14:17:52.134Z,54.01
2019-04-10T14:20:24.107Z,54.59
2019-04-10T14:23:18.008Z,54.66
2019-04-10T14:26:24.513Z,55.33
2019-04-10T14:28:55.622Z,55.48
2019-04-10T14:31:32.220Z,56.21
2019-04-10T14:34:04.930Z,56.86
2019-04-10T14:36:36.665Z,57.00
2019-04-10T14:39:17.632Z,57.65
2019-04-10T14:41:46.423Z,57.65
2019-04-10T14:44:17.905Z,58.04
2019-04-10T14:46:49.685Z,57.79
2019-04-10T14:49:20.924Z,57.64
2019-04-10T14:51:52.659Z,57.49
2019-04-10T14:54:23.928Z,56.85
2019-04-10T14:56:55.327Z,57.01
2019-04-10T14:59:26.306Z,57.03
2019-04-10T15:01:58.044Z,57.33
2019-04-10T15:04:29.166Z,57.52
2019-04-10T15:07:01.743Z,58.58
2019-04-10T15:09:33.129Z,58.58
2019-04-10T15:12:04.937Z,59.10
2019-04-10T15:14:36.135Z,58.29
2019-04-10T15:17:09.180Z,58.29
2019-04-10T15:19:40.837Z,59.22
2019-04-10T15:22:11.972Z,58.85
2019-04-10T15:24:43.325Z,58.85
2019-04-10T15:27:15.300Z,58.71
2019-04-10T15:29:47.103Z,58.65
2019-04-10T15:32:20.546Z,58.65
2019-04-10T15:34:51.593Z,57.92
2019-04-10T15:37:22.940Z,57.72
2019-04-10T15:39:54.453Z,57.72
2019-04-10T15:42:26.041Z,57.63
2019-04-10T15:45:00.596Z,57.31
2019-04-10T15:47:33.418Z,57.31
2019-04-10T15:50:06.909Z,57.48
2019-04-10T15:52:39.790Z,57.60
2019-04-10T15:55:13.349Z,57.53
2019-04-10T15:57:53.157Z,56.89
2019-04-10T16:00:21.213Z,56.67
2019-04-10T16:02:53.885Z,57.35
2019-04-10T16:05:25.821Z,57.26
2019-04-10T16:07:57.179Z,57.45
2019-04-10T16:10:55.125Z,58.77
2019-04-10T16:13:36.766Z,58.99
2019-04-10T16:16:40.349Z,58.04
2019-04-10T16:19:34.518Z,58.07
2019-04-10T16:22:14.897Z,58.77
2019-04-10T16:24:47.140Z,58.66
2019-04-10T16:27:20.355Z,58.66
2019-04-10T16:29:51.558Z,58.35
2019-04-10T16:32:24.430Z,58.18
2019-04-10T16:34:56.789Z,58.34
2019-04-10T16:37:28.203Z,57.50
2019-04-10T16:40:04.073Z,57.50
2019-04-10T16:42:34.832Z,58.64
2019-04-10T16:45:08.088Z,57.85
2019-04-10T16:47:39.507Z,57.85
2019-04-10T16:50:11.258Z,58.50
2019-04-10T16:52:42.470Z,58.50
2019-04-10T16:55:15.680Z,57.35
2019-04-10T16:57:47.318Z,57.35
2019-04-10T17:00:20.621Z,57.70
2019-04-10T17:02:52.646Z,57.91
2019-04-10T17:05:24.806Z,57.89
2019-04-10T17:07:57.316Z,58.07
2019-04-10T17:10:29.791Z,58.07
2019-04-10T17:13:02.368Z,58.17
2019-04-10T17:15:36.411Z,58.83
2019-04-10T17:18:08.739Z,59.13
2019-04-10T17:20:42.740Z,59.13
2019-04-10T17:23:16.490Z,59.07
2019-04-10T17:25:48.739Z,59.06
2019-04-10T17:28:22.942Z,59.37
2019-04-10T17:30:53.905Z,59.37
2019-04-10T17:33:26.749Z,60.05
2019-04-10T17:36:00.146Z,60.27
2019-04-10T17:38:31.846Z,60.55
2019-04-10T17:41:04.499Z,60.55
2019-04-10T17:43:37.109Z,61.05
2019-04-10T17:46:09.226Z,61.98
2019-04-10T17:48:42.040Z,61.33
2019-04-10T17:51:14.076Z,61.82
2019-04-10T17:53:45.428Z,63.42
2019-04-10T17:56:16.834Z,63.42
2019-04-10T17:58:48.143Z,63.32
2019-04-10T18:01:21.126Z,64.30
2019-04-10T18:03:57.266Z,64.30
2019-04-10T18:06:25.632Z,65.50
2019-04-10T18:08:57.137Z,66.32
2019-04-10T18:11:28.322Z,66.68
2019-04-10T18:14:00.786Z,67.46
2019-04-10T18:16:32.058Z,67.46
2019-04-10T18:19:04.308Z,67.98
2019-04-10T18:21:35.422Z,68.03
2019-04-10T18:24:06.618Z,68.18
2019-04-10T18:26:37.707Z,68.15
2019-04-10T18:29:09.990Z,68.50
2019-04-10T18:31:41.144Z,69.56
2019-04-10T18:34:13.833Z,69.56
2019-04-10T18:36:46.420Z,70.18
2019-04-10T18:39:18.979Z,71.23
2019-04-10T18:41:49.961Z,71.12
2019-04-10T18:44:21.245Z,72.08
2019-04-10T18:46:52.287Z,72.65
2019-04-10T18:49:23.705Z,72.92
2019-04-10T18:51:56.262Z,73.66
2019-04-10T18:54:27.273Z,74.28
2019-04-10T18:56:59.709Z,74.35
2019-04-10T19:00:08.092Z,74.00
2019-04-10T19:03:01.298Z,74.01
2019-04-10T19:05:36.939Z,73.84
2019-04-10T19:08:11.152Z,74.60
2019-04-10T19:10:41.422Z,74.90
2019-04-10T19:13:12.978Z,74.93
2019-04-10T19:15:44.849Z,75.45
2019-04-10T19:18:16.522Z,74.86
2019-04-10T19:20:49.141Z,74.89
2019-04-10T19:23:21.007Z,75.24
2019-04-10T19:25:52.975Z,75.73
2019-04-10T19:28:32.292Z,76.43
2019-04-10T19:31:12.916Z,75.99
2019-04-10T19:33:37.306Z,76.17
2019-04-10T19:36:09.835Z,75.80
2019-04-10T19:38:41.906Z,75.67
2019-04-10T19:41:23.372Z,75.26
2019-04-10T19:43:46.406Z,75.96
2019-04-10T19:46:17.581Z,75.75
2019-04-10T19:48:50.786Z,75.67
2019-04-10T19:51:21.810Z,75.37
2019-04-10T19:53:53.423Z,75.74
2019-04-10T19:56:24.809Z,75.46
2019-04-10T19:58:56.541Z,75.25
2019-04-10T20:01:30.050Z,75.22
2019-04-10T20:04:02.023Z,75.22
2019-04-10T20:06:33.433Z,74.96
2019-04-10T20:09:06.435Z,75.64
2019-04-10T20:11:44.619Z,76.17
2019-04-10T20:14:13.738Z,76.34
2019-04-10T20:16:44.168Z,76.20
2019-04-10T20:19:15.547Z,76.29
2019-04-10T20:21:46.818Z,75.74
2019-04-10T20:24:18.876Z,75.33
2019-04-10T20:26:50.383Z,75.16
2019-04-10T20:29:21.756Z,74.77
2019-04-10T20:31:55.285Z,74.42
2019-04-10T20:34:27.460Z,74.13
2019-04-10T20:37:05.889Z,74.17
2019-04-10T20:39:33.525Z,74.17
2019-04-10T20:42:05.729Z,73.73
2019-04-10T20:44:38.240Z,73.61
2019-04-10T20:47:10.785Z,74.37
2019-04-10T20:49:42.930Z,74.53
2019-04-10T20:52:14.679Z,74.63
2019-04-10T20:54:46.885Z,74.76
2019-04-10T20:57:19.202Z,75.03
2019-04-10T20:59:51.009Z,75.14
2019-04-10T21:02:22.339Z,75.23
2019-04-10T21:05:00.517Z,75.28
2019-04-10T21:07:27.596Z,75.74
2019-04-10T21:09:58.863Z,76.49
2019-04-10T21:12:30.399Z,76.40
2019-04-10T21:15:01.494Z,76.33
2019-04-10T21:17:34.484Z,77.00
2019-04-10T21:20:07.886Z,77.10
2019-04-10T21:22:40.469Z,77.09
2019-04-10T21:25:11.997Z,76.84
2019-04-10T21:27:44.075Z,77.17
2019-04-10T21:30:52.981Z,77.03
2019-04-10T21:33:46.998Z,77.31
2019-04-10T21:36:18.717Z,77.23
2019-04-10T21:38:50.660Z,76.81
2019-04-10T21:41:22.089Z,77.20
2019-04-10T21:43:53.890Z,77.89
2019-04-10T21:46:25.220Z,78.34
2019-04-10T21:48:57.370Z,79.91
2019-04-10T21:51:28.810Z,79.76
2019-04-10T21:54:00.226Z,79.63
2019-04-10T21:56:31.805Z,80.16
2019-04-10T21:59:05.371Z,79.82
2019-04-10T22:01:38.103Z,79.57
2019-04-10T22:04:10.287Z,80.31
2019-04-10T22:07:01.477Z,79.83
2019-04-10T22:09:52.921Z,79.70
2019-04-10T22:12:31.589Z,80.01
2019-04-10T22:15:00.168Z,79.76
2019-04-10T22:17:32.168Z,79.59
2019-04-10T22:20:03.757Z,79.20
2019-04-10T22:22:35.265Z,78.60
2019-04-10T22:25:07.882Z,78.48
2019-04-10T22:27:39.526Z,78.31
2019-04-10T22:30:12.452Z,77.97
2019-04-10T22:32:44.405Z,77.84
2019-04-10T22:35:15.865Z,78.31
2019-04-10T22:37:48.494Z,78.05
2019-04-10T22:40:20.080Z,77.93
2019-04-10T22:42:51.597Z,77.86
2019-04-10T22:45:29.320Z,77.87
2019-04-10T22:48:02.172Z,78.00
2019-04-10T22:50:34.455Z,77.84
2019-04-10T22:53:06.893Z,77.91
2019-04-10T22:55:38.459Z,78.26
2019-04-10T22:58:10.781Z,78.05
2019-04-10T23:00:42.554Z,77.77
2019-04-10T23:03:14.209Z,77.56
2019-04-10T23:05:46.869Z,77.44
2019-04-10T23:08:18.521Z,77.40
2019-04-10T23:10:51.157Z,77.21
2019-04-10T23:13:23.726Z,76.82
2019-04-10T23:15:56.475Z,77.13
2019-04-10T23:18:28.147Z,77.17
2019-04-10T23:21:00.601Z,77.96
2019-04-10T23:23:32.810Z,78.17
2019-04-10T23:26:04.844Z,78.89
2019-04-10T23:28:37.719Z,79.15
2019-04-10T23:31:10.061Z,79.21
2019-04-10T23:33:41.950Z,79.43
2019-04-10T23:36:13.958Z,79.44
2019-04-10T23:38:45.868Z,79.47
2019-04-10T23:41:17.756Z,80.48
2019-04-10T23:43:49.120Z,80.26
2019-04-10T23:46:20.335Z,80.14
2019-04-10T23:48:52.929Z,80.87
2019-04-10T23:51:25.197Z,80.45
2019-04-10T23:53:57.214Z,80.33
2019-04-10T23:56:29.426Z,80.29
2019-04-10T23:59:01.143Z,80.17
